Time;durP1;ratioP1;P1;durP2;ratioP2;P2;SDS_P1;SDS_P2;PMS_P1;PMS_P2;Temp;Humidity;BMP_temperature;BMP_pressure;BME280_temperature;BME280_humidity;BME280_pressure;Samples;Min_cycle;Max_cycle;Signal;HPM_P1;HPM_P2
2022/09/01 00:10:26;;;;;;;2.60;1.30;;;;;;;;;;4928102;29;20086;-84
2022/09/01 00:13:13;;;;;;;2.22;1.00;;;;;;;;;;4926506;29;20055;-84
2022/09/01 00:26:12;;;;;;;3.22;1.02;;;;;;;;;;4928112;29;20094;-88
2022/09/01 00:28:55;;;;;;;2.63;1.15;;;;;;;;;;4927899;29;20082;-84
2022/09/01 00:32:07;;;;;;;2.55;1.02;;;;;;;;;;4907720;28;20510;-83
2022/09/01 00:35:26;;;;;;;2.50;1.20;;;;;;;;;;4981927;28;20590;-83
2022/09/01 00:39:41;;;;;;;4.05;1.13;;;;;;;;;;4976995;28;20054;-83
2022/09/01 00:42:24;;;;;;;2.42;1.10;;;;;;;;;;4960360;28;20055;-84
2022/09/01 01:05:45;;;;;;;3.35;1.17;;;;;;;;;;4927579;29;20048;-85
2022/09/01 01:10:31;;;;;;;2.42;1.17;;;;;;;;;;4870758;29;20521;-85
2022/09/01 01:18:22;;;;;;;4.13;1.58;;;;;;;;;;4877911;29;20068;-83
2022/09/01 01:24:17;;;;;;;3.13;1.23;;;;;;;;;;4881645;29;20056;-84
2022/09/01 01:27:29;;;;;;;3.47;1.50;;;;;;;;;;4878304;29;20133;-84
2022/09/01 01:30:19;;;;;;;3.42;1.75;;;;;;;;;;4894769;29;20513;-83
2022/09/01 01:33:06;;;;;;;3.60;1.33;;;;;;;;;;4901986;29;20061;-83
2022/09/01 01:36:06;;;;;;;3.47;1.33;;;;;;;;;;4875971;29;20071;-83
2022/09/01 01:39:00;;;;;;;2.50;1.20;;;;;;;;;;4899372;29;20072;-83
2022/09/01 01:42:11;;;;;;;3.00;1.48;;;;;;;;;;4871568;29;20056;-83
2022/09/01 01:44:53;;;;;;;2.70;1.23;;;;;;;;;;4880787;29;20095;-83
2022/09/01 01:47:34;;;;;;;3.17;1.38;;;;;;;;;;4887713;29;20127;-83
2022/09/01 01:50:26;;;;;;;2.95;1.45;;;;;;;;;;4914601;28;20054;-84
2022/09/01 01:53:10;;;;;;;1.98;1.05;;;;;;;;;;4925571;28;20113;-83
2022/09/01 02:10:34;;;;;;;2.88;1.30;;;;;;;;;;4979277;28;20061;-87
2022/09/01 02:13:29;;;;;;;3.08;1.38;;;;;;;;;;4957833;28;20137;-82
2022/09/01 02:30:36;;;;;;;4.10;1.25;;;;;;;;;;4975829;28;20050;-82
2022/09/01 03:16:38;;;;;;;2.20;1.40;;;;;;;;;;4975961;28;20134;-87
2022/09/01 03:19:20;;;;;;;2.90;1.50;;;;;;;;;;4954244;28;20505;-84
2022/09/01 03:22:43;;;;;;;2.50;1.27;;;;;;;;;;4964198;28;20097;-83
2022/09/01 03:25:51;;;;;;;3.30;1.30;;;;;;;;;;4949811;28;20508;-83
2022/09/01 03:28:32;;;;;;;4.45;1.50;;;;;;;;;;4957778;28;20513;-83
2022/09/01 03:31:15;;;;;;;2.25;1.30;;;;;;;;;;4954611;28;20523;-83
2022/09/01 03:33:59;;;;;;;2.80;1.40;;;;;;;;;;4978835;28;20069;-83
2022/09/01 03:36:55;;;;;;;3.28;1.42;;;;;;;;;;4952492;28;20042;-83
2022/09/01 03:39:38;;;;;;;2.63;1.30;;;;;;;;;;4960557;28;20061;-83
2022/09/01 03:42:22;;;;;;;3.30;1.40;;;;;;;;;;4947130;28;20103;-83
2022/09/01 03:45:08;;;;;;;2.33;1.25;;;;;;;;;;4958052;28;20374;-83
2022/09/01 03:48:20;;;;;;;3.88;1.67;;;;;;;;;;4959884;28;20088;-83
2022/09/01 03:51:30;;;;;;;2.60;1.40;;;;;;;;;;4983525;28;20088;-83
2022/09/01 03:54:12;;;;;;;2.72;1.30;;;;;;;;;;4965286;28;20062;-83
2022/09/01 04:06:11;;;;;;;3.45;1.60;;;;;;;;;;4981145;28;20049;-83
2022/09/01 04:09:28;;;;;;;2.97;1.25;;;;;;;;;;4962286;28;20046;-84
2022/09/01 04:30:32;;;;;;;2.17;1.15;;;;;;;;;;4979844;28;20057;-83
2022/09/01 04:33:16;;;;;;;2.90;1.35;;;;;;;;;;4961659;28;20054;-84
2022/09/01 04:50:51;;;;;;;3.00;1.50;;;;;;;;;;4935688;28;20058;-84
2022/09/01 04:53:47;;;;;;;2.60;1.50;;;;;;;;;;4932627;28;20063;-83
2022/09/01 05:06:58;;;;;;;5.22;1.60;;;;;;;;;;4947040;28;20570;-92
2022/09/01 05:10:55;;;;;;;3.78;1.70;;;;;;;;;;4970170;28;20053;-84
2022/09/01 05:13:38;;;;;;;2.58;1.42;;;;;;;;;;4926931;29;20063;-85
2022/09/01 05:16:33;;;;;;;5.18;1.73;;;;;;;;;;4902131;29;20199;-84
2022/09/01 05:19:22;;;;;;;5.53;2.00;;;;;;;;;;4896885;29;20079;-83
2022/09/01 05:22:30;;;;;;;3.20;1.42;;;;;;;;;;4926427;29;20058;-83
2022/09/01 05:25:50;;;;;;;5.65;1.73;;;;;;;;;;4893075;29;20051;-85
2022/09/01 05:29:59;;;;;;;3.88;1.90;;;;;;;;;;4879340;29;20270;-82
2022/09/01 05:33:22;;;;;;;4.72;1.80;;;;;;;;;;4889916;29;20207;-82
2022/09/01 05:36:07;;;;;;;4.85;1.70;;;;;;;;;;4874149;29;20093;-83
2022/09/01 05:39:57;;;;;;;3.72;1.88;;;;;;;;;;4868310;29;20056;-82
2022/09/01 05:43:53;;;;;;;4.32;1.60;;;;;;;;;;4844248;29;20448;-87
2022/09/01 05:47:42;;;;;;;3.28;1.92;;;;;;;;;;4753962;30;20448;-83
2022/09/01 05:52:02;;;;;;;3.95;1.70;;;;;;;;;;4765131;30;20083;-84
2022/09/01 05:55:55;;;;;;;4.50;1.98;;;;;;;;;;4748665;30;20074;-83
2022/09/01 05:58:43;;;;;;;2.88;1.70;;;;;;;;;;4731410;30;20122;-83
2022/09/01 06:02:56;;;;;;;3.58;1.75;;;;;;;;;;4731642;30;20071;-84
2022/09/01 06:20:11;;;;;;;4.32;1.70;;;;;;;;;;4685986;30;20092;-85
2022/09/01 06:24:00;;;;;;;3.20;1.40;;;;;;;;;;4727490;30;20056;-84
2022/09/01 06:27:26;;;;;;;3.85;1.60;;;;;;;;;;4721572;30;20532;-84
2022/09/01 06:32:14;;;;;;;4.40;1.80;;;;;;;;;;4708828;30;20052;-86
2022/09/01 06:35:59;;;;;;;2.08;1.30;;;;;;;;;;4714252;30;20065;-83
2022/09/01 06:38:46;;;;;;;2.50;1.27;;;;;;;;;;4730774;30;20068;-82
2022/09/01 06:41:14;;;;;;;2.47;1.20;;;;;;;;;;4767174;30;20127;-83
2022/09/01 06:43:42;;;;;;;2.50;1.33;;;;;;;;;;4823362;29;20076;-83
2022/09/01 06:47:41;;;;;;;2.72;1.27;;;;;;;;;;4865263;29;20049;-82
2022/09/01 06:52:02;;;;;;;2.20;1.10;;;;;;;;;;4868331;29;20061;-84
2022/09/01 06:55:30;;;;;;;2.85;1.30;;;;;;;;;;4869194;29;20068;-83
2022/09/01 06:58:26;;;;;;;4.38;1.10;;;;;;;;;;4873473;29;20167;-83
2022/09/01 07:01:16;;;;;;;3.15;1.30;;;;;;;;;;4930150;28;20409;-84
2022/09/01 07:04:10;;;;;;;5.20;1.30;;;;;;;;;;4952322;28;20445;-85
2022/09/01 07:06:50;;;;;;;3.67;1.13;;;;;;;;;;4962008;28;20046;-83
2022/09/01 07:10:00;;;;;;;2.97;1.13;;;;;;;;;;4936828;29;20549;-83
2022/09/01 07:12:56;;;;;;;3.25;1.05;;;;;;;;;;4925681;29;20067;-83
2022/09/01 07:15:37;;;;;;;1.95;0.90;;;;;;;;;;4942578;28;20582;-83
2022/09/01 07:18:55;;;;;;;4.60;1.00;;;;;;;;;;4940260;28;20118;-82
2022/09/01 07:21:32;;;;;;;4.30;1.17;;;;;;;;;;4923726;28;20323;-83
2022/09/01 07:24:12;;;;;;;2.28;0.88;;;;;;;;;;4939478;28;20059;-83
2022/09/01 07:27:04;;;;;;;1.90;0.82;;;;;;;;;;4937925;28;20047;-82
2022/09/01 07:30:21;;;;;;;1.40;0.70;;;;;;;;;;4939481;28;20055;-83
2022/09/01 07:33:10;;;;;;;1.73;0.80;;;;;;;;;;4936496;28;20063;-82
2022/09/01 07:36:03;;;;;;;0.60;0.50;;;;;;;;;;4937572;28;20062;-83
2022/09/01 07:38:52;;;;;;;1.95;0.82;;;;;;;;;;4931718;28;20097;-84
2022/09/01 07:41:34;;;;;;;9.02;1.23;;;;;;;;;;4929673;29;20552;-84
2022/09/01 07:44:54;;;;;;;2.97;0.60;;;;;;;;;;4950378;28;20218;-84
2022/09/01 07:47:50;;;;;;;5.82;0.65;;;;;;;;;;4985177;28;20119;-83
2022/09/01 07:50:56;;;;;;;1.55;0.45;;;;;;;;;;4994931;28;20673;-84
2022/09/01 07:53:49;;;;;;;1.25;0.65;;;;;;;;;;4969718;28;20138;-83
2022/09/01 07:56:24;;;;;;;1.38;0.60;;;;;;;;;;4997410;28;20087;-82
2022/09/01 07:58:58;;;;;;;2.38;0.70;;;;;;;;;;4988090;28;20046;-83
2022/09/01 08:01:27;;;;;;;1.42;0.60;;;;;;;;;;4949382;28;20667;-83
2022/09/01 08:03:59;;;;;;;1.98;0.50;;;;;;;;;;4955368;28;20530;-83
2022/09/01 08:06:27;;;;;;;1.42;0.50;;;;;;;;;;4940545;28;20131;-83
2022/09/01 08:08:59;;;;;;;1.42;0.70;;;;;;;;;;4981515;28;20790;-84
2022/09/01 08:11:42;;;;;;;3.22;0.82;;;;;;;;;;4956451;28;20058;-83
2022/09/01 08:14:52;;;;;;;1.00;0.60;;;;;;;;;;4981117;28;20095;-83
2022/09/01 08:17:57;;;;;;;1.02;0.50;;;;;;;;;;4964738;28;20113;-83
2022/09/01 08:26:52;;;;;;;1.88;0.73;;;;;;;;;;4911761;29;20161;-85
2022/09/01 08:30:17;;;;;;;0.75;0.35;;;;;;;;;;4909634;29;20060;-83
2022/09/01 11:16:27;;;;;;;0.82;0.50;;;;;;;;;;4982680;28;20064;-89
2022/09/01 11:39:17;;;;;;;1.50;0.60;;;;;;;;;;4958623;28;20109;-85
2022/09/01 11:42:43;;;;;;;1.13;0.55;;;;;;;;;;4948066;28;20062;-88
2022/09/01 11:45:59;;;;;;;1.25;0.70;;;;;;;;;;4964217;28;20058;-88
2022/09/01 11:48:52;;;;;;;1.10;0.50;;;;;;;;;;4978371;28;20059;-87
2022/09/01 12:02:21;;;;;;;1.38;0.70;;;;;;;;;;4922961;29;20059;-86
2022/09/01 16:31:30;;;;;;;2.10;0.80;;;;;;;;;;4982084;28;20050;-84
2022/09/01 16:49:20;;;;;;;1.63;0.70;;;;;;;;;;4776636;29;20096;-85
2022/09/01 16:58:40;;;;;;;1.75;0.80;;;;;;;;;;4815345;29;20061;-84
2022/09/01 17:02:52;;;;;;;1.23;0.60;;;;;;;;;;4831520;29;20931;-84
2022/09/01 17:07:15;;;;;;;1.45;0.60;;;;;;;;;;4844338;29;20244;-85
2022/09/01 17:11:45;;;;;;;1.75;0.75;;;;;;;;;;4808044;29;20129;-85
2022/09/01 17:15:51;;;;;;;0.73;0.50;;;;;;;;;;4757043;30;20055;-84
2022/09/01 17:20:15;;;;;;;0.98;0.50;;;;;;;;;;4708864;30;20064;-86
2022/09/01 17:23:49;;;;;;;1.80;0.70;;;;;;;;;;4743897;30;20044;-85
2022/09/01 17:27:35;;;;;;;3.25;0.60;;;;;;;;;;4709050;30;20088;-83
2022/09/01 17:31:02;;;;;;;1.10;0.60;;;;;;;;;;4708484;30;20060;-84
2022/09/01 17:35:22;;;;;;;1.38;0.65;;;;;;;;;;4677989;30;20072;-84
2022/09/01 17:39:12;;;;;;;1.42;0.50;;;;;;;;;;4676687;30;20097;-84
2022/09/01 17:43:41;;;;;;;1.70;0.70;;;;;;;;;;4704850;30;20056;-82
2022/09/01 17:46:41;;;;;;;1.48;0.80;;;;;;;;;;4756909;30;20131;-83
2022/09/01 19:10:04;;;;;;;3.13;0.70;;;;;;;;;;4759609;30;20072;-85
2022/09/01 19:14:36;;;;;;;3.35;1.17;;;;;;;;;;4742929;30;20033;-84
2022/09/01 19:19:06;;;;;;;0.85;0.43;;;;;;;;;;4764613;29;20052;-84
2022/09/01 19:32:39;;;;;;;1.50;0.52;;;;;;;;;;5708929;22;15086479;-83
2022/09/01 19:35:23;;;;;;;1.75;0.88;;;;;;;;;;6304937;22;20018;-83
2022/09/01 19:38:26;;;;;;;2.03;0.80;;;;;;;;;;6339865;22;20029;-84
2022/09/01 19:41:55;;;;;;;0.95;0.70;;;;;;;;;;6316290;22;20014;-84
2022/09/01 19:46:17;;;;;;;1.75;0.80;;;;;;;;;;6190925;23;20570;-83
2022/09/01 19:49:14;;;;;;;1.90;1.10;;;;;;;;;;6144686;23;20350;-84
2022/09/01 19:52:06;;;;;;;1.73;0.75;;;;;;;;;;6239853;23;20099;-84
2022/09/01 19:54:36;;;;;;;2.08;1.02;;;;;;;;;;6251932;22;20024;-84
2022/09/01 19:57:21;;;;;;;2.03;0.80;;;;;;;;;;6239788;23;20761;-84
2022/09/01 20:00:07;;;;;;;2.08;0.75;;;;;;;;;;6205598;22;20042;-84
2022/09/01 20:02:49;;;;;;;1.80;0.80;;;;;;;;;;6248281;22;20024;-84
2022/09/01 20:06:02;;;;;;;1.27;0.70;;;;;;;;;;6250249;22;20052;-83
2022/09/01 20:09:23;;;;;;;2.13;0.82;;;;;;;;;;6214464;23;20174;-84
2022/09/01 20:12:29;;;;;;;1.45;0.80;;;;;;;;;;6159952;23;20025;-84
2022/09/01 20:15:59;;;;;;;2.00;0.93;;;;;;;;;;6139667;23;20021;-86
2022/09/01 20:19:42;;;;;;;4.18;1.00;;;;;;;;;;6091393;23;20026;-83
2022/09/01 20:24:01;;;;;;;1.85;1.00;;;;;;;;;;6032831;23;20054;-84
2022/09/01 20:27:54;;;;;;;4.78;1.05;;;;;;;;;;6033350;23;20857;-83
2022/09/01 20:31:13;;;;;;;2.75;1.23;;;;;;;;;;6033319;23;20023;-84
2022/09/01 20:34:24;;;;;;;3.83;1.30;;;;;;;;;;5983633;23;20441;-85
2022/09/01 20:42:14;;;;;;;2.20;0.82;;;;;;;;;;6025537;23;20027;-84
2022/09/01 20:45:28;;;;;;;2.53;1.08;;;;;;;;;;6001883;23;20027;-83
2022/09/01 20:49:13;;;;;;;2.78;1.00;;;;;;;;;;6011246;23;20095;-85
2022/09/01 20:52:19;;;;;;;1.63;0.70;;;;;;;;;;5987333;23;20128;-84
2022/09/01 20:55:28;;;;;;;3.05;1.20;;;;;;;;;;6045267;23;20097;-84
2022/09/01 20:58:33;;;;;;;3.45;0.95;;;;;;;;;;6089739;23;20427;-85
2022/09/01 21:01:36;;;;;;;2.28;1.10;;;;;;;;;;6091453;23;20981;-84
2022/09/01 21:22:50;;;;;;;2.40;1.08;;;;;;;;;;6368516;22;20010;-84
2022/09/01 21:25:43;;;;;;;2.42;1.17;;;;;;;;;;6322062;22;20018;-83
2022/09/01 21:28:26;;;;;;;1.60;0.80;;;;;;;;;;6344809;22;20018;-83
2022/09/01 21:31:21;;;;;;;1.83;1.00;;;;;;;;;;6331765;22;20717;-83
2022/09/01 21:34:06;;;;;;;1.73;0.90;;;;;;;;;;6326418;22;20097;-83
2022/09/01 21:36:48;;;;;;;1.60;0.90;;;;;;;;;;6335363;22;20018;-83
2022/09/01 21:39:56;;;;;;;2.72;0.95;;;;;;;;;;6370164;22;20029;-83
2022/09/01 21:42:46;;;;;;;3.65;1.00;;;;;;;;;;6369469;22;20086;-83
2022/09/01 21:45:38;;;;;;;2.03;0.95;;;;;;;;;;6342394;22;20472;-83
2022/09/01 21:48:20;;;;;;;2.55;1.08;;;;;;;;;;6330953;22;20445;-83
2022/09/01 21:51:06;;;;;;;1.85;1.08;;;;;;;;;;6371151;22;20419;-84
2022/09/01 21:53:52;;;;;;;1.75;0.90;;;;;;;;;;6369902;22;20443;-83
2022/09/01 21:56:34;;;;;;;1.67;0.80;;;;;;;;;;6330909;22;20728;-84
2022/09/01 21:59:42;;;;;;;6.90;1.10;;;;;;;;;;6332326;22;20833;-84
2022/09/01 22:02:40;;;;;;;2.85;0.93;;;;;;;;;;6338933;22;20079;-84
2022/09/01 22:05:24;;;;;;;3.38;0.95;;;;;;;;;;6345719;22;20022;-83
2022/09/01 22:08:27;;;;;;;1.77;0.82;;;;;;;;;;6335825;22;20358;-82
2022/09/01 22:11:10;;;;;;;1.77;0.80;;;;;;;;;;6336956;22;20426;-84
2022/09/01 22:13:52;;;;;;;4.15;0.82;;;;;;;;;;6346040;22;20024;-83
2022/09/01 22:16:34;;;;;;;2.08;0.90;;;;;;;;;;6368203;22;20071;-84
2022/09/01 22:19:16;;;;;;;2.35;0.80;;;;;;;;;;6320323;22;20075;-83
2022/09/01 22:21:58;;;;;;;1.52;0.90;;;;;;;;;;6331444;22;20059;-83
2022/09/01 22:24:40;;;;;;;1.73;0.70;;;;;;;;;;6329618;22;20491;-83
2022/09/01 22:27:44;;;;;;;2.65;0.90;;;;;;;;;;6359205;22;20484;-85
2022/09/01 22:30:26;;;;;;;4.13;0.90;;;;;;;;;;6327357;22;20025;-84
2022/09/01 22:33:08;;;;;;;3.20;1.20;;;;;;;;;;6357371;22;20026;-84
2022/09/01 22:36:11;;;;;;;1.70;0.77;;;;;;;;;;6329604;22;20021;-84
2022/09/01 22:38:52;;;;;;;2.72;1.00;;;;;;;;;;6344466;22;20415;-84
2022/09/01 22:41:58;;;;;;;1.25;0.68;;;;;;;;;;6317488;22;20343;-84
2022/09/01 22:59:12;;;;;;;2.95;0.93;;;;;;;;;;6359441;22;20021;-83
2022/09/01 23:02:04;;;;;;;1.98;1.00;;;;;;;;;;6324634;22;20037;-84
2022/09/01 23:04:46;;;;;;;1.55;0.80;;;;;;;;;;6319845;22;20032;-84
2022/09/01 23:07:28;;;;;;;1.55;0.85;;;;;;;;;;6369238;22;20022;-83
2022/09/01 23:10:10;;;;;;;2.47;0.80;;;;;;;;;;6330396;22;20022;-83
2022/09/01 23:13:02;;;;;;;2.38;1.05;;;;;;;;;;6341066;22;20434;-84
2022/09/01 23:15:50;;;;;;;3.50;0.90;;;;;;;;;;6331048;22;20014;-83
2022/09/01 23:18:33;;;;;;;0.95;0.60;;;;;;;;;;6303469;22;20022;-84
2022/09/01 23:21:55;;;;;;;2.13;0.90;;;;;;;;;;6327805;22;20471;-84
2022/09/01 23:24:38;;;;;;;1.13;0.65;;;;;;;;;;6369254;22;20163;-83
2022/09/01 23:27:48;;;;;;;1.55;0.90;;;;;;;;;;6341603;22;20027;-83
2022/09/01 23:30:30;;;;;;;1.25;0.70;;;;;;;;;;6299090;22;20049;-83
2022/09/01 23:33:24;;;;;;;1.80;0.80;;;;;;;;;;6316745;22;20458;-84
2022/09/01 23:36:17;;;;;;;1.13;0.68;;;;;;;;;;6345036;22;20014;-84
2022/09/01 23:39:18;;;;;;;1.38;0.70;;;;;;;;;;6321388;22;20037;-83
2022/09/01 23:42:22;;;;;;;1.73;0.82;;;;;;;;;;6294763;22;20503;-84
2022/09/01 23:45:10;;;;;;;1.67;0.80;;;;;;;;;;6316953;22;20022;-84
2022/09/01 23:48:00;;;;;;;1.08;0.65;;;;;;;;;;6370050;22;20605;-84
2022/09/01 23:50:52;;;;;;;1.20;0.60;;;;;;;;;;6286189;22;20028;-84
2022/09/01 23:53:36;;;;;;;1.65;0.75;;;;;;;;;;6223051;22;20024;-84
